Leviticus — WDC2712 — position and weather

sailwx.info

Track history (hours):
 
Tides and Currents Weather Stations Pressure Air Temp Water Temp Dewpoint Dewpoint Depression Visibility Wind Speed Wind Dir Waves Ship Positions

Leviticus

Owner: Kirby Inland Marine, LP, Houston, TX. More information available from US FCC via Universal Licensing System and Coast Guard Vessel Documentation Center.

Last reported at 2016-Jul-27 15:33 UTC. Time now 2016-Jul-27 21:09 UTC.
Position N 32°34' W 091°07'.

Length 12 m.

Type: Other ship. MMSI: 366996690.

Date/timePositionNaut miles runAvg speedWind from/ knotsBaromVisibWave heightAir tempDewpointWater temp
2016-Jul-27 15:33N 32°34' W 091°07'5 4.0
2016-Jul-27 14:23N 32°30' W 091°07'4 4.4
2016-Jul-27 13:34N 32°27' W 091°04'4 4.2
2016-Jul-27 12:34N 32°25' W 090°60'4 3.7
2016-Jul-27 11:34N 32°21' W 090°60'4 4.5
2016-Jul-27 10:33N 32°21' W 090°55'4 3.5
2016-Jul-27 09:33N 32°17' W 090°56'4 3.8
2016-Jul-27 08:33N 32°14' W 090°59'5 4.5
2016-Jul-27 07:33N 32°10' W 091°00'3 3.4
2016-Jul-27 06:33N 32°07' W 091°03'3 3.2
2016-Jul-27 05:33N 32°07' W 091°07'5 4.1
2016-Jul-27 04:26N 32°03' W 091°04'  
2016-Jul-24 08:08N 31°58' W 091°11'6 6.2
2016-Jul-24 07:14N 31°60' W 091°05'5 6.0
2016-Jul-24 06:23N 32°05' W 091°05'3 3.3
2016-Jul-24 05:32N 32°08' W 091°04'5 5.4
2016-Jul-24 04:33N 32°11' W 090°60'7 6.7
2016-Jul-24 03:33N 32°17' W 090°56'1 1.0
2016-Jul-24 02:33N 32°18' W 090°55'0 0.0
2016-Jul-24 01:34N 32°18' W 090°55'0 0.0
2016-Jul-24 00:33N 32°18' W 090°55'4 4.0
2016-Jul-23 23:34N 32°21' W 090°59'7 7.0
2016-Jul-23 22:33N 32°26' W 091°04'6 6.0
2016-Jul-23 21:33N 32°32' W 091°06'  
Track history (hours):
 
Tides and Currents Weather Stations Pressure Air Temp Water Temp Dewpoint Dewpoint Depression Visibility Wind Speed Wind Dir Waves Ship Positions

Leviticus

Owner: Kirby Inland Marine, LP, Houston, TX. More information available from US FCC via Universal Licensing System and Coast Guard Vessel Documentation Center.

Last reported at 2016-Jul-27 15:33 UTC. Time now 2016-Jul-27 21:09 UTC.
Position N 32°34' W 091°07'.

Length 12 m.

Type: Other ship. MMSI: 366996690.

Date/timePositionNaut miles runAvg speedWind from/ knotsBaromVisibWave heightAir tempDewpointWater temp
2016-Jul-27 15:33N 32°34' W 091°07'5 4.0
2016-Jul-27 14:23N 32°30' W 091°07'4 4.4
2016-Jul-27 13:34N 32°27' W 091°04'4 4.2
2016-Jul-27 12:34N 32°25' W 090°60'4 3.7
2016-Jul-27 11:34N 32°21' W 090°60'4 4.5
2016-Jul-27 10:33N 32°21' W 090°55'4 3.5
2016-Jul-27 09:33N 32°17' W 090°56'4 3.8
2016-Jul-27 08:33N 32°14' W 090°59'5 4.5
2016-Jul-27 07:33N 32°10' W 091°00'3 3.4
2016-Jul-27 06:33N 32°07' W 091°03'3 3.2
2016-Jul-27 05:33N 32°07' W 091°07'5 4.1
2016-Jul-27 04:26N 32°03' W 091°04'  
2016-Jul-24 08:08N 31°58' W 091°11'6 6.2
2016-Jul-24 07:14N 31°60' W 091°05'5 6.0
2016-Jul-24 06:23N 32°05' W 091°05'3 3.3
2016-Jul-24 05:32N 32°08' W 091°04'5 5.4
2016-Jul-24 04:33N 32°11' W 090°60'7 6.7
2016-Jul-24 03:33N 32°17' W 090°56'1 1.0
2016-Jul-24 02:33N 32°18' W 090°55'0 0.0
2016-Jul-24 01:34N 32°18' W 090°55'0 0.0
2016-Jul-24 00:33N 32°18' W 090°55'4 4.0
2016-Jul-23 23:34N 32°21' W 090°59'7 7.0
2016-Jul-23 22:33N 32°26' W 091°04'6 6.0
2016-Jul-23 21:33N 32°32' W 091°06'  

Dump ship's entire track history